Time;durP1;ratioP1;P1;durP2;ratioP2;P2;SDS_P1;SDS_P2;PMS_P1;PMS_P2;Temp;Humidity;BMP_temperature;BMP_pressure;BME280_temperature;BME280_humidity;BME280_pressure;Samples;Min_cycle;Max_cycle;Signal;HPM_P1;HPM_P2
2022/06/07 00:00:26;;;;;;;;;;;17.20;99.90;;;;;;5062739;28;19925;-66
2022/06/07 00:02:52;;;;;;;;;;;17.20;99.90;;;;;;5062852;28;19971;-66
2022/06/07 00:05:19;;;;;;;;;;;17.20;99.90;;;;;;5062411;28;19921;-66
2022/06/07 00:07:46;;;;;;;;;;;17.20;99.90;;;;;;5062742;28;19921;-66
2022/06/07 00:10:14;;;;;;;;;;;17.20;99.90;;;;;;5062588;28;20007;-66
2022/06/07 00:12:41;;;;;;;;;;;17.20;99.90;;;;;;5062947;28;19921;-67
2022/06/07 00:15:08;;;;;;;;;;;17.20;99.90;;;;;;5065870;28;19925;-67
2022/06/07 00:17:35;;;;;;;;;;;17.20;99.90;;;;;;5066508;28;19955;-66
2022/06/07 00:20:02;;;;;;;;;;;17.20;99.90;;;;;;5066540;28;19921;-66
2022/06/07 00:22:28;;;;;;;;;;;17.20;99.90;;;;;;5065806;28;19924;-67
2022/06/07 00:24:55;;;;;;;;;;;17.20;99.90;;;;;;5066127;28;19951;-66
2022/06/07 00:27:24;;;;;;;;;;;17.20;99.90;;;;;;5066188;28;19960;-66
2022/06/07 00:29:51;;;;;;;;;;;17.10;99.90;;;;;;5066076;28;19921;-66
2022/06/07 00:32:18;;;;;;;;;;;17.00;99.90;;;;;;5066249;28;19971;-67
2022/06/07 00:34:45;;;;;;;;;;;17.00;99.90;;;;;;5066014;28;19921;-67
2022/06/07 00:37:12;;;;;;;;;;;17.00;99.90;;;;;;5065711;28;20250;-67
2022/06/07 00:39:39;;;;;;;;;;;16.90;99.90;;;;;;5065886;28;20023;-66
2022/06/07 00:42:06;;;;;;;;;;;17.00;99.90;;;;;;5065866;28;19980;-66
2022/06/07 00:44:35;;;;;;;;;;;16.90;99.90;;;;;;5065913;28;19956;-66
2022/06/07 00:47:04;;;;;;;;;;;16.80;99.90;;;;;;5066079;28;19921;-66
2022/06/07 00:49:33;;;;;;;;;;;16.80;99.90;;;;;;5065931;28;19983;-66
2022/06/07 00:51:59;;;;;;;;;;;16.80;99.90;;;;;;5065557;28;20201;-67
2022/06/07 00:54:28;;;;;;;;;;;16.80;99.90;;;;;;5065845;28;19956;-66
2022/06/07 00:56:56;;;;;;;;;;;16.70;99.90;;;;;;5065664;28;19928;-66
2022/06/07 00:59:23;;;;;;;;;;;16.70;99.90;;;;;;5065660;28;19983;-66
2022/06/07 01:01:51;;;;;;;;;;;16.80;99.90;;;;;;5065646;28;20160;-67
2022/06/07 01:04:18;;;;;;;;;;;16.70;99.90;;;;;;5065498;28;19929;-67
2022/06/07 01:12:13;;;;;;;;;;;16.70;99.90;;;;;;5065631;28;19928;-66
2022/06/07 01:14:39;;;;;;;;;;;16.70;99.90;;;;;;5065318;28;19963;-66
2022/06/07 01:17:07;;;;;;;;;;;16.70;99.90;;;;;;5064907;28;19988;-67
2022/06/07 01:19:34;;;;;;;;;;;16.60;99.90;;;;;;5065452;28;19956;-67
2022/06/07 01:22:02;;;;;;;;;;;16.60;99.90;;;;;;5064855;28;19956;-66
2022/06/07 01:24:29;;;;;;;;;;;16.60;99.90;;;;;;5065059;28;19997;-66
2022/06/07 01:26:55;;;;;;;;;;;16.60;99.90;;;;;;5064898;28;19988;-66
2022/06/07 01:29:22;;;;;;;;;;;16.50;99.90;;;;;;5065051;28;19920;-67
2022/06/07 01:31:49;;;;;;;;;;;16.50;99.90;;;;;;5065038;28;19956;-66
2022/06/07 01:34:16;;;;;;;;;;;16.60;99.90;;;;;;5064995;28;19928;-66
2022/06/07 01:36:43;;;;;;;;;;;16.60;99.90;;;;;;5064491;28;19956;-67
2022/06/07 01:41:55;;;;;;;;;;;16.50;99.90;;;;;;5064943;28;19950;-66
2022/06/07 01:44:22;;;;;;;;;;;16.50;99.90;;;;;;5064988;28;19956;-66
2022/06/07 01:46:49;;;;;;;;;;;16.50;99.90;;;;;;5064657;28;19984;-67
2022/06/07 01:49:15;;;;;;;;;;;16.40;99.90;;;;;;5064878;28;19988;-67
2022/06/07 01:51:42;;;;;;;;;;;16.40;99.90;;;;;;5064726;28;20149;-67
2022/06/07 01:54:09;;;;;;;;;;;16.40;99.90;;;;;;5064643;28;19956;-67
2022/06/07 01:56:38;;;;;;;;;;;16.30;99.90;;;;;;5064101;28;19952;-67
2022/06/07 01:59:05;;;;;;;;;;;16.30;99.90;;;;;;5064671;28;19920;-67
2022/06/07 02:01:32;;;;;;;;;;;16.30;99.90;;;;;;5064574;28;19953;-67
2022/06/07 02:03:58;;;;;;;;;;;16.30;99.90;;;;;;5064649;28;19921;-67
2022/06/07 02:06:25;;;;;;;;;;;16.30;99.90;;;;;;5064456;28;19959;-67
2022/06/07 02:08:52;;;;;;;;;;;16.30;99.90;;;;;;5064390;28;19988;-67
2022/06/07 02:11:20;;;;;;;;;;;16.30;99.90;;;;;;5064401;28;19948;-67
2022/06/07 02:13:48;;;;;;;;;;;16.20;99.90;;;;;;5064455;28;19927;-67
2022/06/07 02:16:16;;;;;;;;;;;16.20;99.90;;;;;;5064007;28;19921;-67
2022/06/07 02:18:42;;;;;;;;;;;16.20;99.90;;;;;;5064323;28;19921;-67
2022/06/07 02:21:09;;;;;;;;;;;16.20;99.90;;;;;;5063444;28;19921;-67
2022/06/07 02:23:37;;;;;;;;;;;16.30;99.90;;;;;;5064009;28;19921;-67
2022/06/07 02:26:05;;;;;;;;;;;16.30;99.90;;;;;;5063553;28;20263;-67
2022/06/07 02:28:33;;;;;;;;;;;16.30;99.90;;;;;;5064138;28;19940;-67
2022/06/07 02:31:04;;;;;;;;;;;16.30;99.90;;;;;;5063689;28;19920;-67
2022/06/07 02:33:32;;;;;;;;;;;16.30;99.90;;;;;;5063938;28;19921;-66
2022/06/07 02:35:58;;;;;;;;;;;16.30;99.90;;;;;;5062903;28;19921;-67
2022/06/07 02:38:25;;;;;;;;;;;16.20;99.90;;;;;;5063601;28;19920;-67
2022/06/07 02:40:53;;;;;;;;;;;16.20;99.90;;;;;;5063888;28;19921;-67
2022/06/07 02:43:20;;;;;;;;;;;16.20;99.90;;;;;;5063818;28;19920;-67
2022/06/07 02:45:47;;;;;;;;;;;16.30;99.90;;;;;;5063262;28;19928;-67
2022/06/07 02:48:15;;;;;;;;;;;16.20;99.90;;;;;;5063716;28;19951;-67
2022/06/07 02:50:42;;;;;;;;;;;16.10;99.90;;;;;;5063537;28;20172;-68
2022/06/07 02:53:09;;;;;;;;;;;16.10;99.90;;;;;;5063883;28;19920;-67
2022/06/07 02:55:36;;;;;;;;;;;16.10;99.90;;;;;;5063320;28;19988;-67
2022/06/07 02:58:02;;;;;;;;;;;16.10;99.90;;;;;;5063419;28;19928;-67
2022/06/07 03:00:29;;;;;;;;;;;16.10;99.90;;;;;;5063475;28;19964;-67
2022/06/07 03:02:56;;;;;;;;;;;16.10;99.90;;;;;;5063435;28;19959;-66
2022/06/07 03:05:24;;;;;;;;;;;16.00;99.90;;;;;;5063312;28;19921;-67
2022/06/07 03:07:51;;;;;;;;;;;16.00;99.90;;;;;;5063607;28;19921;-67
2022/06/07 03:10:18;;;;;;;;;;;16.00;99.90;;;;;;5063478;28;19925;-67
2022/06/07 03:12:45;;;;;;;;;;;15.90;99.90;;;;;;5063691;28;19963;-67
2022/06/07 03:15:12;;;;;;;;;;;15.90;99.90;;;;;;5063166;28;19928;-67
2022/06/07 03:17:39;;;;;;;;;;;15.90;99.90;;;;;;5063295;28;19921;-67
2022/06/07 03:20:06;;;;;;;;;;;15.90;99.90;;;;;;5063134;28;19963;-67
2022/06/07 03:22:34;;;;;;;;;;;15.90;99.90;;;;;;5062660;28;19928;-67
2022/06/07 03:25:05;;;;;;;;;;;15.90;99.90;;;;;;5063081;28;19956;-67
2022/06/07 03:27:32;;;;;;;;;;;16.00;99.90;;;;;;5062899;28;19933;-67
2022/06/07 03:29:58;;;;;;;;;;;16.00;99.90;;;;;;5063199;28;19927;-67
2022/06/07 03:32:25;;;;;;;;;;;15.90;99.90;;;;;;5062962;28;19921;-67
2022/06/07 03:34:52;;;;;;;;;;;15.90;99.90;;;;;;5062913;28;19924;-66
2022/06/07 03:37:19;;;;;;;;;;;15.90;99.90;;;;;;5062906;28;19928;-67
2022/06/07 03:39:47;;;;;;;;;;;15.80;99.90;;;;;;5062941;28;19944;-67
2022/06/07 03:42:13;;;;;;;;;;;15.80;99.90;;;;;;5063080;28;20116;-66
2022/06/07 03:44:40;;;;;;;;;;;15.80;99.90;;;;;;5062809;28;19952;-66
2022/06/07 03:47:07;;;;;;;;;;;15.80;99.90;;;;;;5062658;28;19924;-67
2022/06/07 03:49:34;;;;;;;;;;;15.80;99.90;;;;;;5066967;28;20298;-67
2022/06/07 03:52:01;;;;;;;;;;;15.90;99.90;;;;;;5066842;28;19940;-67
2022/06/07 03:54:28;;;;;;;;;;;15.80;99.90;;;;;;5066861;28;19987;-67
2022/06/07 03:56:56;;;;;;;;;;;15.80;99.90;;;;;;5066632;28;19920;-67
2022/06/07 03:59:23;;;;;;;;;;;15.80;99.90;;;;;;5067080;28;19959;-67
2022/06/07 04:01:50;;;;;;;;;;;15.80;99.90;;;;;;5066878;28;19959;-67
2022/06/07 04:04:17;;;;;;;;;;;15.80;99.90;;;;;;5066909;28;19983;-67
2022/06/07 04:08:10;;;;;;;;;;;15.80;99.90;;;;;;5066250;28;19944;-67
2022/06/07 04:09:32;;;;;;;;;;;15.80;99.90;;;;;;5066486;28;19921;-67
2022/06/07 04:12:00;;;;;;;;;;;15.70;99.90;;;;;;5066325;28;19952;-67
2022/06/07 04:14:27;;;;;;;;;;;15.70;99.90;;;;;;5066463;28;19927;-66
2022/06/07 04:16:54;;;;;;;;;;;15.70;99.90;;;;;;5066198;28;20200;-67
2022/06/07 04:19:20;;;;;;;;;;;15.80;99.90;;;;;;5066698;28;19956;-67
2022/06/07 04:21:47;;;;;;;;;;;15.70;99.90;;;;;;5066883;28;19966;-66
2022/06/07 04:24:14;;;;;;;;;;;15.80;99.90;;;;;;5066331;28;19983;-67
2022/06/07 04:26:41;;;;;;;;;;;15.80;99.90;;;;;;5065953;28;19928;-67
2022/06/07 04:29:09;;;;;;;;;;;15.80;99.90;;;;;;5066492;28;19920;-66
2022/06/07 04:31:35;;;;;;;;;;;15.80;99.90;;;;;;5066280;28;20157;-66
2022/06/07 04:34:02;;;;;;;;;;;15.80;99.90;;;;;;5066066;28;19983;-67
2022/06/07 04:36:28;;;;;;;;;;;15.80;99.90;;;;;;5065739;28;20255;-67
2022/06/07 04:38:57;;;;;;;;;;;15.80;99.90;;;;;;5066097;28;20204;-65
2022/06/07 04:41:24;;;;;;;;;;;15.80;99.90;;;;;;5066274;28;19921;-66
2022/06/07 04:43:51;;;;;;;;;;;15.80;99.90;;;;;;5066078;28;19963;-67
2022/06/07 04:46:21;;;;;;;;;;;15.80;99.90;;;;;;5064039;28;20253;-66
2022/06/07 04:48:49;;;;;;;;;;;15.80;99.90;;;;;;5065847;28;19921;-66
2022/06/07 04:51:16;;;;;;;;;;;15.80;99.90;;;;;;5065855;28;19931;-67
2022/06/07 04:53:44;;;;;;;;;;;15.80;99.90;;;;;;5065951;28;19960;-67
2022/06/07 04:56:11;;;;;;;;;;;15.80;99.90;;;;;;5064564;28;19927;-67
2022/06/07 04:58:38;;;;;;;;;;;15.80;99.90;;;;;;5065710;28;19921;-66
2022/06/07 05:01:08;;;;;;;;;;;15.80;99.90;;;;;;5065162;28;19984;-66
2022/06/07 05:03:36;;;;;;;;;;;15.80;99.90;;;;;;5065755;28;19959;-67
2022/06/07 05:06:03;;;;;;;;;;;15.90;99.90;;;;;;5065107;28;19920;-66
2022/06/07 05:08:30;;;;;;;;;;;16.00;99.90;;;;;;5065754;28;19963;-67
2022/06/07 05:10:59;;;;;;;;;;;16.00;99.90;;;;;;5065597;28;19955;-66
2022/06/07 05:13:25;;;;;;;;;;;16.00;99.90;;;;;;5065515;28;19921;-67
2022/06/07 05:15:55;;;;;;;;;;;16.00;99.90;;;;;;5065207;28;19952;-67
2022/06/07 05:18:22;;;;;;;;;;;16.00;99.90;;;;;;5065390;28;20153;-66
2022/06/07 05:20:50;;;;;;;;;;;16.00;99.90;;;;;;5065134;28;20000;-67
2022/06/07 05:23:16;;;;;;;;;;;16.00;99.90;;;;;;5065508;28;19948;-67
2022/06/07 05:25:52;;;;;;;;;;;16.00;99.90;;;;;;5064973;28;19921;-67
2022/06/07 05:28:19;;;;;;;;;;;16.00;99.90;;;;;;5065216;28;19932;-66
2022/06/07 05:30:46;;;;;;;;;;;16.00;99.90;;;;;;5065127;28;19987;-67
2022/06/07 05:33:12;;;;;;;;;;;16.00;99.90;;;;;;5064766;28;20204;-67
2022/06/07 05:35:39;;;;;;;;;;;16.00;99.90;;;;;;5064819;28;20161;-67
2022/06/07 05:38:07;;;;;;;;;;;16.10;99.90;;;;;;5065101;28;19921;-66
2022/06/07 05:40:34;;;;;;;;;;;16.10;99.90;;;;;;5064870;28;19927;-67
2022/06/07 05:43:01;;;;;;;;;;;16.20;99.90;;;;;;5064828;28;19928;-67
2022/06/07 05:45:27;;;;;;;;;;;16.30;99.90;;;;;;5064357;28;20200;-67
2022/06/07 05:47:54;;;;;;;;;;;16.30;99.90;;;;;;5064947;28;19956;-66
2022/06/07 05:50:21;;;;;;;;;;;16.30;99.90;;;;;;5064982;28;19963;-66
2022/06/07 05:52:47;;;;;;;;;;;16.30;99.90;;;;;;5064616;28;20287;-66
2022/06/07 05:55:15;;;;;;;;;;;16.30;99.90;;;;;;5064313;28;19984;-66
2022/06/07 05:57:44;;;;;;;;;;;16.30;99.90;;;;;;5064677;28;20180;-67
2022/06/07 06:00:11;;;;;;;;;;;16.30;99.90;;;;;;5064532;28;19967;-67
2022/06/07 06:02:38;;;;;;;;;;;16.40;99.90;;;;;;5064618;28;19983;-66
2022/06/07 06:05:05;;;;;;;;;;;16.30;99.90;;;;;;5064294;28;19959;-67
2022/06/07 06:07:31;;;;;;;;;;;16.40;99.90;;;;;;5064075;28;20255;-67
2022/06/07 06:12:43;;;;;;;;;;;16.40;99.90;;;;;;5063361;28;20008;-66
2022/06/07 06:15:10;;;;;;;;;;;16.40;99.90;;;;;;5064188;28;19963;-67
2022/06/07 06:17:37;;;;;;;;;;;16.40;99.90;;;;;;5063198;28;19925;-67
2022/06/07 06:20:04;;;;;;;;;;;16.40;99.90;;;;;;5064397;28;19953;-66
2022/06/07 06:22:31;;;;;;;;;;;16.40;99.90;;;;;;5064020;28;20256;-67
2022/06/07 06:24:57;;;;;;;;;;;16.40;99.90;;;;;;5064064;28;19921;-67
2022/06/07 06:27:25;;;;;;;;;;;16.40;99.90;;;;;;5062766;28;20228;-66
2022/06/07 06:29:53;;;;;;;;;;;16.40;99.90;;;;;;5064107;28;19963;-67
2022/06/07 06:32:20;;;;;;;;;;;16.40;99.90;;;;;;5063806;28;19927;-67
2022/06/07 06:34:47;;;;;;;;;;;16.40;99.90;;;;;;5063722;28;19967;-67
2022/06/07 06:37:14;;;;;;;;;;;16.30;99.90;;;;;;5063595;28;20120;-66
2022/06/07 06:39:41;;;;;;;;;;;16.40;99.90;;;;;;5063795;28;19928;-67
2022/06/07 06:42:08;;;;;;;;;;;16.40;99.90;;;;;;5064020;28;20161;-67
2022/06/07 06:44:35;;;;;;;;;;;16.40;99.90;;;;;;5063503;28;19987;-67
2022/06/07 06:47:03;;;;;;;;;;;16.40;99.90;;;;;;5063595;28;19952;-66
2022/06/07 06:49:30;;;;;;;;;;;16.50;99.90;;;;;;5063785;28;19920;-67
2022/06/07 06:51:57;;;;;;;;;;;16.50;99.90;;;;;;5063438;28;20208;-67
2022/06/07 06:54:24;;;;;;;;;;;16.50;99.90;;;;;;5063436;28;20223;-67
2022/06/07 06:56:51;;;;;;;;;;;16.50;99.90;;;;;;5063481;28;20172;-67
2022/06/07 06:59:18;;;;;;;;;;;16.60;99.90;;;;;;5063674;28;20116;-66
2022/06/07 07:01:44;;;;;;;;;;;16.60;99.90;;;;;;5063425;28;20093;-67
2022/06/07 07:04:13;;;;;;;;;;;16.60;99.90;;;;;;5063515;28;19944;-66
2022/06/07 07:06:40;;;;;;;;;;;16.60;99.90;;;;;;5063496;28;19921;-66
2022/06/07 07:09:08;;;;;;;;;;;16.60;99.90;;;;;;5063464;28;19928;-67
2022/06/07 07:11:37;;;;;;;;;;;16.60;99.90;;;;;;5063481;28;19927;-67
2022/06/07 07:14:05;;;;;;;;;;;16.60;99.90;;;;;;5063223;28;19920;-67
2022/06/07 07:16:33;;;;;;;;;;;16.60;99.90;;;;;;5062881;28;20268;-66
2022/06/07 07:19:00;;;;;;;;;;;16.70;99.90;;;;;;5063245;28;19920;-67
2022/06/07 07:21:29;;;;;;;;;;;16.70;99.90;;;;;;5063023;28;19963;-66
2022/06/07 07:23:57;;;;;;;;;;;16.80;99.90;;;;;;5063044;28;19921;-67
2022/06/07 07:26:24;;;;;;;;;;;16.90;99.90;;;;;;5062300;28;19921;-67
2022/06/07 07:28:52;;;;;;;;;;;17.00;99.90;;;;;;5063320;28;19943;-67
2022/06/07 07:31:20;;;;;;;;;;;17.00;99.90;;;;;;5063202;28;20018;-66
2022/06/07 07:33:47;;;;;;;;;;;17.10;99.90;;;;;;5063144;28;19991;-67
2022/06/07 07:36:14;;;;;;;;;;;17.10;99.90;;;;;;5062540;28;19956;-67
2022/06/07 07:38:42;;;;;;;;;;;17.10;99.90;;;;;;5063173;28;19943;-67
2022/06/07 07:41:15;;;;;;;;;;;17.20;99.90;;;;;;5063155;28;19928;-67
2022/06/07 07:43:42;;;;;;;;;;;17.20;99.90;;;;;;5062922;28;20225;-67
2022/06/07 07:46:09;;;;;;;;;;;17.20;99.90;;;;;;5080062;23;19927;-66
2022/06/07 07:48:36;;;;;;;;;;;17.30;99.90;;;;;;5083064;28;19928;-66
2022/06/07 07:51:04;;;;;;;;;;;17.30;99.90;;;;;;5083382;28;19920;-65
2022/06/07 07:53:31;;;;;;;;;;;17.40;99.90;;;;;;5083178;28;19978;-66
2022/06/07 07:55:59;;;;;;;;;;;17.50;99.90;;;;;;5082798;28;19943;-66
2022/06/07 07:58:25;;;;;;;;;;;17.70;99.90;;;;;;5083076;28;19959;-66
2022/06/07 08:00:52;;;;;;;;;;;17.70;99.90;;;;;;5082280;28;19952;-66
2022/06/07 08:03:20;;;;;;;;;;;17.80;99.90;;;;;;5083318;28;19920;-66
2022/06/07 08:05:46;;;;;;;;;;;17.80;99.90;;;;;;5083147;28;19920;-67
2022/06/07 08:08:13;;;;;;;;;;;17.80;99.90;;;;;;5083706;28;19955;-65
2022/06/07 08:10:40;;;;;;;;;;;17.80;99.90;;;;;;5082605;28;19921;-66
2022/06/07 08:13:08;;;;;;;;;;;17.90;99.90;;;;;;5083081;28;19927;-66
2022/06/07 08:15:35;;;;;;;;;;;18.00;99.90;;;;;;5082652;28;20124;-66
2022/06/07 08:18:03;;;;;;;;;;;18.00;99.90;;;;;;5083279;28;19959;-66
2022/06/07 08:20:30;;;;;;;;;;;18.10;99.90;;;;;;5083303;28;19927;-66
2022/06/07 08:22:57;;;;;;;;;;;18.10;99.90;;;;;;5083623;28;20131;-66
2022/06/07 08:25:24;;;;;;;;;;;18.20;99.90;;;;;;5082539;28;19983;-66
2022/06/07 08:27:50;;;;;;;;;;;18.20;99.90;;;;;;5082595;28;20156;-66
2022/06/07 08:30:20;;;;;;;;;;;18.20;99.90;;;;;;5082582;28;20239;-67
2022/06/07 08:32:46;;;;;;;;;;;18.20;99.90;;;;;;5082763;28;20154;-66
2022/06/07 08:37:59;;;;;;;;;;;18.10;99.90;;;;;;5086339;28;19923;-66
2022/06/07 08:40:30;;;;;;;;;;;18.10;99.90;;;;;;5086795;28;19921;-66
2022/06/07 08:42:59;;;;;;;;;;;18.10;99.90;;;;;;5086762;28;20208;-66
2022/06/07 08:45:29;;;;;;;;;;;18.20;99.90;;;;;;5086665;28;19924;-66
2022/06/07 08:47:57;;;;;;;;;;;18.30;99.90;;;;;;5086033;28;19920;-66
2022/06/07 08:50:26;;;;;;;;;;;18.30;99.90;;;;;;5085886;28;19983;-66
2022/06/07 08:52:55;;;;;;;;;;;18.30;99.90;;;;;;5085915;28;19927;-66
2022/06/07 08:55:23;;;;;;;;;;;18.40;99.90;;;;;;5085585;28;19920;-66
2022/06/07 08:57:54;;;;;;;;;;;18.50;99.90;;;;;;5086025;28;19948;-66
2022/06/07 09:00:22;;;;;;;;;;;18.50;99.90;;;;;;5085997;28;19920;-66
2022/06/07 09:03:08;;;;;;;;;;;18.60;99.90;;;;;;5085812;28;19927;-66
2022/06/07 09:05:35;;;;;;;;;;;18.60;99.90;;;;;;5084289;28;19928;-66
2022/06/07 09:08:02;;;;;;;;;;;18.70;99.90;;;;;;5085666;28;20262;-66
2022/06/07 09:13:19;;;;;;;;;;;18.90;99.90;;;;;;5085631;28;19927;-66
2022/06/07 09:15:47;;;;;;;;;;;19.00;99.90;;;;;;5084607;28;19927;-66
2022/06/07 09:18:16;;;;;;;;;;;19.00;99.90;;;;;;5083101;28;20282;-66
2022/06/07 09:20:44;;;;;;;;;;;19.10;99.90;;;;;;5085301;28;19921;-67
2022/06/07 09:23:14;;;;;;;;;;;19.20;99.90;;;;;;5085440;28;20148;-66
2022/06/07 09:25:46;;;;;;;;;;;19.20;99.90;;;;;;5085060;28;19927;-66
2022/06/07 09:28:14;;;;;;;;;;;19.20;99.90;;;;;;5085142;28;19940;-66
2022/06/07 09:30:43;;;;;;;;;;;19.20;99.90;;;;;;5085201;28;19920;-66
2022/06/07 09:33:20;;;;;;;;;;;19.30;99.90;;;;;;5084620;28;19943;-66
2022/06/07 09:35:48;;;;;;;;;;;19.40;99.90;;;;;;5084627;28;20176;-66
2022/06/07 09:38:16;;;;;;;;;;;19.50;99.90;;;;;;5085657;28;20022;-66
2022/06/07 09:40:48;;;;;;;;;;;19.50;99.90;;;;;;5084535;28;19959;-66
2022/06/07 09:43:17;;;;;;;;;;;19.60;99.90;;;;;;5085589;28;19924;-66
2022/06/07 09:45:52;;;;;;;;;;;19.70;99.90;;;;;;5084559;28;20223;-67
2022/06/07 09:48:21;;;;;;;;;;;19.80;99.90;;;;;;5085576;28;19924;-67
2022/06/07 09:50:56;;;;;;;;;;;19.90;99.90;;;;;;5084235;28;20246;-67
2022/06/07 09:53:23;;;;;;;;;;;19.90;99.90;;;;;;5084761;28;19925;-66
2022/06/07 09:55:56;;;;;;;;;;;19.90;99.90;;;;;;5084955;28;19959;-67
2022/06/07 09:58:31;;;;;;;;;;;19.90;99.90;;;;;;5085226;28;19974;-67
2022/06/07 10:01:01;;;;;;;;;;;19.90;99.90;;;;;;5084928;28;20330;-66
2022/06/07 10:03:31;;;;;;;;;;;19.90;99.90;;;;;;5085056;28;19958;-66
2022/06/07 10:06:07;;;;;;;;;;;19.90;99.90;;;;;;5084810;28;19987;-67
2022/06/07 10:08:40;;;;;;;;;;;19.80;99.90;;;;;;5084807;28;20256;-66
2022/06/07 10:11:11;;;;;;;;;;;19.70;99.90;;;;;;5084652;28;19920;-66
2022/06/07 10:13:53;;;;;;;;;;;19.80;99.90;;;;;;5084529;28;19920;-66
2022/06/07 10:16:23;;;;;;;;;;;19.80;99.90;;;;;;5084548;28;19959;-66
2022/06/07 10:18:56;;;;;;;;;;;19.90;99.90;;;;;;5084867;28;19959;-66
2022/06/07 10:21:32;;;;;;;;;;;20.00;99.90;;;;;;5084553;28;19927;-65
2022/06/07 10:24:13;;;;;;;;;;;20.00;99.90;;;;;;5084557;28;19952;-66
2022/06/07 10:26:45;;;;;;;;;;;20.00;99.90;;;;;;5084314;28;19944;-66
2022/06/07 10:29:18;;;;;;;;;;;20.00;99.90;;;;;;5084064;28;19927;-66
2022/06/07 10:31:48;;;;;;;;;;;19.90;99.90;;;;;;5084248;28;19920;-66
2022/06/07 10:34:21;;;;;;;;;;;19.90;99.90;;;;;;5083327;28;20003;-66
2022/06/07 10:36:56;;;;;;;;;;;19.80;99.90;;;;;;5083508;28;19921;-65
2022/06/07 10:39:30;;;;;;;;;;;20.00;99.90;;;;;;5083744;28;19959;-66
2022/06/07 10:42:01;;;;;;;;;;;20.10;99.90;;;;;;5083470;28;19920;-66
2022/06/07 10:44:31;;;;;;;;;;;20.20;99.90;;;;;;5083974;28;20239;-66
2022/06/07 10:47:00;;;;;;;;;;;20.10;99.90;;;;;;5083280;28;19920;-66
2022/06/07 10:49:30;;;;;;;;;;;20.10;99.90;;;;;;5083648;28;20093;-66
2022/06/07 10:54:55;;;;;;;;;;;20.20;99.90;;;;;;5083597;28;19958;-66
2022/06/07 10:57:24;;;;;;;;;;;20.40;99.90;;;;;;5082551;28;19928;-66
2022/06/07 10:59:51;;;;;;;;;;;20.80;99.90;;;;;;5083622;28;19959;-65
2022/06/07 11:02:21;;;;;;;;;;;21.00;99.90;;;;;;5083468;28;19920;-65
2022/06/07 11:10:25;;;;;;;;;;;20.60;99.90;;;;;;5083525;28;19935;-66
2022/06/07 11:13:00;;;;;;;;;;;20.60;99.90;;;;;;5083457;28;19926;-66
2022/06/07 11:15:32;;;;;;;;;;;20.80;99.90;;;;;;5083087;28;20243;-66
2022/06/07 11:18:02;;;;;;;;;;;21.10;99.90;;;;;;5082729;28;19924;-66
2022/06/07 11:20:31;;;;;;;;;;;21.40;99.90;;;;;;5083536;28;19959;-66
2022/06/07 11:23:03;;;;;;;;;;;21.60;99.90;;;;;;5083311;28;19991;-66
2022/06/07 11:25:33;;;;;;;;;;;21.90;99.90;;;;;;5083222;28;19939;-67
2022/06/07 11:28:01;;;;;;;;;;;21.90;99.90;;;;;;5083512;28;19921;-66
2022/06/07 11:30:41;;;;;;;;;;;21.90;99.90;;;;;;5083555;28;20225;-67
2022/06/07 11:33:23;;;;;;;;;;;21.90;99.90;;;;;;5082754;28;19952;-66
2022/06/07 11:35:52;;;;;;;;;;;22.10;99.90;;;;;;5082561;28;20174;-67
2022/06/07 11:38:24;;;;;;;;;;;22.30;99.90;;;;;;5083326;28;20178;-66
2022/06/07 11:41:36;;;;;;;;;;;22.50;99.90;;;;;;5083257;28;19920;-66
2022/06/07 11:43:56;;;;;;;;;;;22.40;99.90;;;;;;5083206;28;19921;-66
2022/06/07 11:46:25;;;;;;;;;;;22.30;99.90;;;;;;5082799;28;19966;-66
2022/06/07 11:48:52;;;;;;;;;;;22.10;99.90;;;;;;5083514;28;19920;-66
2022/06/07 11:51:21;;;;;;;;;;;22.20;99.90;;;;;;5083155;28;19987;-67
2022/06/07 11:53:56;;;;;;;;;;;22.40;99.90;;;;;;5083032;28;19943;-66
2022/06/07 11:56:29;;;;;;;;;;;22.40;99.90;;;;;;5082546;28;19928;-67
2022/06/07 11:58:58;;;;;;;;;;;22.50;99.90;;;;;;5083128;28;19951;-67
2022/06/07 12:01:35;;;;;;;;;;;22.80;99.90;;;;;;5083131;28;20100;-66
2022/06/07 12:04:21;;;;;;;;;;;23.00;99.90;;;;;;5083398;28;19948;-66
2022/06/07 12:06:48;;;;;;;;;;;23.00;99.90;;;;;;5082478;28;19952;-66
2022/06/07 12:09:16;;;;;;;;;;;22.80;99.90;;;;;;5084572;28;19967;-67
2022/06/07 12:11:44;;;;;;;;;;;22.60;99.90;;;;;;5086816;28;19958;-67
2022/06/07 12:14:25;;;;;;;;;;;22.40;99.90;;;;;;5086800;28;19928;-66
2022/06/07 12:16:57;;;;;;;;;;;22.20;99.90;;;;;;5086654;28;19921;-67
2022/06/07 12:19:24;;;;;;;;;;;21.80;99.90;;;;;;5086034;28;19921;-67
2022/06/07 12:21:53;;;;;;;;;;;21.70;99.90;;;;;;5085866;28;20204;-66
2022/06/07 12:24:22;;;;;;;;;;;21.70;99.90;;;;;;5086723;28;19966;-66
2022/06/07 12:26:48;;;;;;;;;;;21.70;99.90;;;;;;5086008;28;19921;-66
2022/06/07 12:29:19;;;;;;;;;;;21.60;99.90;;;;;;5086400;28;19952;-66
2022/06/07 12:31:47;;;;;;;;;;;21.60;99.90;;;;;;5086397;28;20176;-67
2022/06/07 12:34:17;;;;;;;;;;;21.80;99.90;;;;;;5086014;28;19946;-66
2022/06/07 12:36:44;;;;;;;;;;;21.90;99.90;;;;;;5085961;28;19921;-66
2022/06/07 12:39:13;;;;;;;;;;;22.10;99.90;;;;;;5086359;28;19921;-66
2022/06/07 12:41:47;;;;;;;;;;;22.20;99.90;;;;;;5086273;28;19935;-66
2022/06/07 12:44:20;;;;;;;;;;;22.50;99.90;;;;;;5086126;28;19936;-67
2022/06/07 12:46:46;;;;;;;;;;;22.60;99.90;;;;;;5085671;28;19921;-67
2022/06/07 12:49:19;;;;;;;;;;;22.50;99.90;;;;;;5086086;28;19920;-66
2022/06/07 12:51:53;;;;;;;;;;;22.60;99.90;;;;;;5086224;28;19927;-67
2022/06/07 12:54:21;;;;;;;;;;;22.70;99.90;;;;;;5085864;28;20179;-67
2022/06/07 12:56:50;;;;;;;;;;;22.50;99.90;;;;;;5085566;28;19920;-66
2022/06/07 12:59:20;;;;;;;;;;;22.50;99.90;;;;;;5085998;28;19928;-67
2022/06/07 13:01:49;;;;;;;;;;;22.40;99.90;;;;;;5086170;28;19966;-67
2022/06/07 13:04:18;;;;;;;;;;;22.30;99.90;;;;;;5085842;28;19988;-66
2022/06/07 13:06:57;;;;;;;;;;;22.10;99.90;;;;;;5085304;28;19943;-67
2022/06/07 13:09:24;;;;;;;;;;;22.00;99.90;;;;;;5085660;28;19920;-66
2022/06/07 13:11:52;;;;;;;;;;;22.00;99.90;;;;;;5086021;28;19927;-66
2022/06/07 13:14:19;;;;;;;;;;;21.90;99.90;;;;;;5085657;28;19943;-67
2022/06/07 13:16:47;;;;;;;;;;;21.90;99.90;;;;;;5085360;28;19943;-66
2022/06/07 13:19:24;;;;;;;;;;;22.00;99.90;;;;;;5084814;28;19935;-66
2022/06/07 13:22:02;;;;;;;;;;;22.30;99.90;;;;;;5084166;28;19928;-67
2022/06/07 13:24:35;;;;;;;;;;;22.90;99.90;;;;;;5085656;28;20123;-67
2022/06/07 13:27:05;;;;;;;;;;;23.20;99.90;;;;;;5084859;28;19920;-67
2022/06/07 13:29:33;;;;;;;;;;;23.40;99.90;;;;;;5085198;28;19928;-67
2022/06/07 13:32:01;;;;;;;;;;;23.80;99.90;;;;;;5085293;28;19920;-67
2022/06/07 13:34:29;;;;;;;;;;;24.00;99.90;;;;;;5084896;28;20207;-67
2022/06/07 13:37:13;;;;;;;;;;;23.90;99.90;;;;;;5084875;28;20116;-66
2022/06/07 13:39:41;;;;;;;;;;;23.80;99.90;;;;;;5085207;28;19959;-67
2022/06/07 13:42:13;;;;;;;;;;;23.70;99.90;;;;;;5085018;28;19921;-67
2022/06/07 13:44:42;;;;;;;;;;;23.40;99.90;;;;;;5084969;28;19927;-65
2022/06/07 13:47:21;;;;;;;;;;;23.30;99.90;;;;;;5092704;22;20103;-67
2022/06/07 13:55:45;;;;;;;;;;;22.90;99.90;;;;;;5084316;28;19926;-67
2022/06/07 13:58:13;;;;;;;;;;;22.70;99.90;;;;;;5084655;28;19920;-66
2022/06/07 14:00:41;;;;;;;;;;;22.40;99.90;;;;;;5083882;28;19996;-66
2022/06/07 14:03:16;;;;;;;;;;;22.40;99.90;;;;;;5084731;28;20116;-66
2022/06/07 14:05:43;;;;;;;;;;;22.30;99.90;;;;;;5083930;28;20215;-67
2022/06/07 14:08:12;;;;;;;;;;;22.30;99.90;;;;;;5084643;28;20174;-67
2022/06/07 14:10:39;;;;;;;;;;;22.50;99.90;;;;;;5083826;28;19951;-66
2022/06/07 14:13:06;;;;;;;;;;;23.00;99.90;;;;;;5084549;28;19921;-67
2022/06/07 14:15:35;;;;;;;;;;;23.50;99.90;;;;;;5083812;28;20252;-66
2022/06/07 14:18:02;;;;;;;;;;;23.90;99.90;;;;;;5084160;28;19984;-67
2022/06/07 14:20:31;;;;;;;;;;;23.90;99.90;;;;;;5083913;28;19928;-66
2022/06/07 14:22:58;;;;;;;;;;;23.90;99.90;;;;;;5082990;28;19952;-66
2022/06/07 14:25:27;;;;;;;;;;;23.80;99.90;;;;;;5082419;28;19959;-66
2022/06/07 14:27:54;;;;;;;;;;;23.90;99.90;;;;;;5083040;28;19926;-66
2022/06/07 14:30:21;;;;;;;;;;;23.60;99.90;;;;;;5082977;28;19921;-66
2022/06/07 14:32:52;;;;;;;;;;;23.30;99.90;;;;;;5082459;28;19921;-67
2022/06/07 14:35:20;;;;;;;;;;;23.10;99.90;;;;;;5081151;28;19920;-67
2022/06/07 14:37:47;;;;;;;;;;;22.80;99.90;;;;;;5083675;28;19928;-66
2022/06/07 14:40:15;;;;;;;;;;;22.60;99.90;;;;;;5083678;28;19920;-67
2022/06/07 14:42:43;;;;;;;;;;;22.60;99.90;;;;;;5083827;28;19921;-66
2022/06/07 14:45:12;;;;;;;;;;;22.70;99.90;;;;;;5082527;28;19924;-67
2022/06/07 14:47:39;;;;;;;;;;;22.70;99.90;;;;;;5082220;28;19928;-66
2022/06/07 14:50:07;;;;;;;;;;;22.80;99.90;;;;;;5082818;28;19928;-66
2022/06/07 14:52:34;;;;;;;;;;;22.80;99.90;;;;;;5081890;28;19929;-67
2022/06/07 14:55:01;;;;;;;;;;;22.90;99.90;;;;;;5083332;28;19999;-67